sensor_id;sensor_type;location;lat;lon;timestamp;temperature;humidity
66035;HTU21D;52805;51.074;5.842;2023-07-31T00:02:20;18.26;118.99
66035;HTU21D;52805;51.074;5.842;2023-07-31T00:04:45;18.19;118.99
66035;HTU21D;52805;51.074;5.842;2023-07-31T00:07:11;18.20;118.99
66035;HTU21D;52805;51.074;5.842;2023-07-31T00:09:37;18.18;118.99
66035;HTU21D;52805;51.074;5.842;2023-07-31T00:12:03;18.14;118.99
66035;HTU21D;52805;51.074;5.842;2023-07-31T00:14:29;18.10;118.99
66035;HTU21D;52805;51.074;5.842;2023-07-31T00:16:54;18.13;118.99
66035;HTU21D;52805;51.074;5.842;2023-07-31T00:19:20;18.15;118.99
66035;HTU21D;52805;51.074;5.842;2023-07-31T00:21:45;18.19;118.99
66035;HTU21D;52805;51.074;5.842;2023-07-31T00:24:11;18.20;118.99
66035;HTU21D;52805;51.074;5.842;2023-07-31T00:26:37;18.19;118.99
66035;HTU21D;52805;51.074;5.842;2023-07-31T00:29:04;18.18;118.99
66035;HTU21D;52805;51.074;5.842;2023-07-31T00:31:29;18.22;118.99
66035;HTU21D;52805;51.074;5.842;2023-07-31T00:33:55;18.13;118.99
66035;HTU21D;52805;51.074;5.842;2023-07-31T00:36:21;18.21;118.99
66035;HTU21D;52805;51.074;5.842;2023-07-31T00:38:48;18.13;118.99
66035;HTU21D;52805;51.074;5.842;2023-07-31T00:41:14;18.08;118.99
66035;HTU21D;52805;51.074;5.842;2023-07-31T00:43:40;18.07;118.99
66035;HTU21D;52805;51.074;5.842;2023-07-31T00:46:07;18.12;118.99
66035;HTU21D;52805;51.074;5.842;2023-07-31T00:48:34;18.03;118.99
66035;HTU21D;52805;51.074;5.842;2023-07-31T00:51:01;18.02;118.99
66035;HTU21D;52805;51.074;5.842;2023-07-31T00:53:27;17.98;118.99
66035;HTU21D;52805;51.074;5.842;2023-07-31T00:55:53;17.99;118.99
66035;HTU21D;52805;51.074;5.842;2023-07-31T00:58:19;17.99;118.99
66035;HTU21D;52805;51.074;5.842;2023-07-31T01:00:45;18.00;118.99
66035;HTU21D;52805;51.074;5.842;2023-07-31T01:03:12;17.97;118.99
66035;HTU21D;52805;51.074;5.842;2023-07-31T01:05:54;18.03;118.99
66035;HTU21D;52805;51.074;5.842;2023-07-31T01:08:37;18.05;118.99
66035;HTU21D;52805;51.074;5.842;2023-07-31T01:11:25;18.02;118.99
66035;HTU21D;52805;51.074;5.842;2023-07-31T01:13:54;18.03;118.99
66035;HTU21D;52805;51.074;5.842;2023-07-31T01:16:20;18.02;118.99
66035;HTU21D;52805;51.074;5.842;2023-07-31T01:18:45;18.03;118.99
66035;HTU21D;52805;51.074;5.842;2023-07-31T01:21:34;18.04;118.99
66035;HTU21D;52805;51.074;5.842;2023-07-31T01:26:53;18.02;118.99
66035;HTU21D;52805;51.074;5.842;2023-07-31T01:29:43;18.00;118.99
66035;HTU21D;52805;51.074;5.842;2023-07-31T01:32:13;18.04;118.99
66035;HTU21D;52805;51.074;5.842;2023-07-31T01:34:41;18.09;118.99
66035;HTU21D;52805;51.074;5.842;2023-07-31T01:37:07;18.06;118.99
66035;HTU21D;52805;51.074;5.842;2023-07-31T01:39:33;18.09;118.99
66035;HTU21D;52805;51.074;5.842;2023-07-31T01:41:59;18.11;118.99
66035;HTU21D;52805;51.074;5.842;2023-07-31T01:44:25;18.10;118.99
66035;HTU21D;52805;51.074;5.842;2023-07-31T01:46:50;18.12;118.99
66035;HTU21D;52805;51.074;5.842;2023-07-31T01:49:16;18.17;118.99
66035;HTU21D;52805;51.074;5.842;2023-07-31T01:51:42;18.15;118.99
66035;HTU21D;52805;51.074;5.842;2023-07-31T01:54:08;18.13;118.99
66035;HTU21D;52805;51.074;5.842;2023-07-31T01:56:33;18.21;118.99
66035;HTU21D;52805;51.074;5.842;2023-07-31T01:58:59;18.19;118.99
66035;HTU21D;52805;51.074;5.842;2023-07-31T02:01:25;18.19;118.99
66035;HTU21D;52805;51.074;5.842;2023-07-31T02:03:50;18.22;118.99
66035;HTU21D;52805;51.074;5.842;2023-07-31T02:06:16;18.25;118.99
66035;HTU21D;52805;51.074;5.842;2023-07-31T02:08:42;18.24;118.99
66035;HTU21D;52805;51.074;5.842;2023-07-31T02:11:08;18.28;118.99
66035;HTU21D;52805;51.074;5.842;2023-07-31T02:13:34;18.28;118.99
66035;HTU21D;52805;51.074;5.842;2023-07-31T02:15:59;18.28;118.99
66035;HTU21D;52805;51.074;5.842;2023-07-31T02:18:25;18.30;118.99
66035;HTU21D;52805;51.074;5.842;2023-07-31T02:20:51;18.37;118.99
66035;HTU21D;52805;51.074;5.842;2023-07-31T02:23:20;18.37;118.99
66035;HTU21D;52805;51.074;5.842;2023-07-31T02:25:46;18.37;118.99
66035;HTU21D;52805;51.074;5.842;2023-07-31T02:28:13;18.35;118.99
66035;HTU21D;52805;51.074;5.842;2023-07-31T02:30:39;18.35;118.99
66035;HTU21D;52805;51.074;5.842;2023-07-31T02:33:05;18.37;118.99
66035;HTU21D;52805;51.074;5.842;2023-07-31T02:35:31;18.38;118.99
66035;HTU21D;52805;51.074;5.842;2023-07-31T02:37:57;18.38;118.99
66035;HTU21D;52805;51.074;5.842;2023-07-31T02:40:22;18.40;118.99
66035;HTU21D;52805;51.074;5.842;2023-07-31T02:42:49;18.41;118.99
66035;HTU21D;52805;51.074;5.842;2023-07-31T02:45:14;18.46;118.99
66035;HTU21D;52805;51.074;5.842;2023-07-31T02:47:40;18.39;118.99
66035;HTU21D;52805;51.074;5.842;2023-07-31T02:50:06;18.51;118.99
66035;HTU21D;52805;51.074;5.842;2023-07-31T02:52:32;18.44;118.99
66035;HTU21D;52805;51.074;5.842;2023-07-31T02:54:58;18.48;118.99
66035;HTU21D;52805;51.074;5.842;2023-07-31T02:57:24;18.46;118.99
66035;HTU21D;52805;51.074;5.842;2023-07-31T02:59:49;18.47;118.99
66035;HTU21D;52805;51.074;5.842;2023-07-31T03:02:15;18.44;118.99
66035;HTU21D;52805;51.074;5.842;2023-07-31T03:04:41;18.44;118.99
66035;HTU21D;52805;51.074;5.842;2023-07-31T03:07:06;18.49;118.99
66035;HTU21D;52805;51.074;5.842;2023-07-31T03:09:32;18.56;118.99
66035;HTU21D;52805;51.074;5.842;2023-07-31T03:11:58;18.53;118.99
66035;HTU21D;52805;51.074;5.842;2023-07-31T03:14:23;18.49;118.99
66035;HTU21D;52805;51.074;5.842;2023-07-31T03:16:52;18.50;118.99
66035;HTU21D;52805;51.074;5.842;2023-07-31T03:19:18;18.48;118.99
66035;HTU21D;52805;51.074;5.842;2023-07-31T03:21:43;18.50;118.99
66035;HTU21D;52805;51.074;5.842;2023-07-31T03:24:09;18.49;118.99
66035;HTU21D;52805;51.074;5.842;2023-07-31T03:26:35;18.52;118.99
66035;HTU21D;52805;51.074;5.842;2023-07-31T03:29:02;18.50;118.99
66035;HTU21D;52805;51.074;5.842;2023-07-31T03:31:28;18.52;118.99
66035;HTU21D;52805;51.074;5.842;2023-07-31T03:33:54;18.52;118.99
66035;HTU21D;52805;51.074;5.842;2023-07-31T03:36:19;18.53;118.99
66035;HTU21D;52805;51.074;5.842;2023-07-31T03:38:46;18.50;118.99
66035;HTU21D;52805;51.074;5.842;2023-07-31T03:41:12;18.49;118.99
66035;HTU21D;52805;51.074;5.842;2023-07-31T03:43:38;18.49;118.99
66035;HTU21D;52805;51.074;5.842;2023-07-31T03:46:03;18.50;118.99
66035;HTU21D;52805;51.074;5.842;2023-07-31T03:48:30;18.53;118.99
66035;HTU21D;52805;51.074;5.842;2023-07-31T03:50:56;18.56;118.99
66035;HTU21D;52805;51.074;5.842;2023-07-31T03:53:21;18.50;118.99
66035;HTU21D;52805;51.074;5.842;2023-07-31T03:55:47;18.51;118.99
66035;HTU21D;52805;51.074;5.842;2023-07-31T03:58:13;18.51;118.99
66035;HTU21D;52805;51.074;5.842;2023-07-31T04:00:40;18.51;118.99
66035;HTU21D;52805;51.074;5.842;2023-07-31T04:03:06;18.51;118.99
66035;HTU21D;52805;51.074;5.842;2023-07-31T04:05:32;18.54;118.99
66035;HTU21D;52805;51.074;5.842;2023-07-31T04:07:58;18.54;118.99
66035;HTU21D;52805;51.074;5.842;2023-07-31T04:10:24;18.53;118.99
66035;HTU21D;52805;51.074;5.842;2023-07-31T04:12:50;18.56;118.99
66035;HTU21D;52805;51.074;5.842;2023-07-31T04:15:15;18.59;118.99
66035;HTU21D;52805;51.074;5.842;2023-07-31T04:17:41;18.59;118.99
66035;HTU21D;52805;51.074;5.842;2023-07-31T04:20:07;18.59;118.99
66035;HTU21D;52805;51.074;5.842;2023-07-31T04:22:33;18.64;118.99
66035;HTU21D;52805;51.074;5.842;2023-07-31T04:24:59;18.63;118.99
66035;HTU21D;52805;51.074;5.842;2023-07-31T04:27:24;18.66;118.99
66035;HTU21D;52805;51.074;5.842;2023-07-31T04:29:50;18.67;118.99
66035;HTU21D;52805;51.074;5.842;2023-07-31T04:32:16;18.68;118.99
66035;HTU21D;52805;51.074;5.842;2023-07-31T04:34:42;18.70;118.99
66035;HTU21D;52805;51.074;5.842;2023-07-31T04:37:08;18.73;118.99
66035;HTU21D;52805;51.074;5.842;2023-07-31T04:39:34;18.71;118.99
66035;HTU21D;52805;51.074;5.842;2023-07-31T04:41:59;18.73;118.99
66035;HTU21D;52805;51.074;5.842;2023-07-31T04:44:25;18.81;118.99
66035;HTU21D;52805;51.074;5.842;2023-07-31T04:46:51;18.73;118.99
66035;HTU21D;52805;51.074;5.842;2023-07-31T04:49:16;18.72;118.99
66035;HTU21D;52805;51.074;5.842;2023-07-31T04:51:42;18.73;118.99
66035;HTU21D;52805;51.074;5.842;2023-07-31T04:54:08;18.74;118.99
66035;HTU21D;52805;51.074;5.842;2023-07-31T04:56:33;18.78;118.99
66035;HTU21D;52805;51.074;5.842;2023-07-31T04:58:59;18.77;118.99
66035;HTU21D;52805;51.074;5.842;2023-07-31T05:01:25;18.76;118.99
66035;HTU21D;52805;51.074;5.842;2023-07-31T05:03:51;18.73;118.99
66035;HTU21D;52805;51.074;5.842;2023-07-31T05:06:16;18.73;118.99
66035;HTU21D;52805;51.074;5.842;2023-07-31T05:08:42;18.71;118.99
66035;HTU21D;52805;51.074;5.842;2023-07-31T05:11:08;18.69;118.99
66035;HTU21D;52805;51.074;5.842;2023-07-31T05:13:33;18.70;118.99
66035;HTU21D;52805;51.074;5.842;2023-07-31T05:15:59;18.69;118.99
66035;HTU21D;52805;51.074;5.842;2023-07-31T05:18:27;18.69;118.99
66035;HTU21D;52805;51.074;5.842;2023-07-31T05:20:53;18.65;118.99
66035;HTU21D;52805;51.074;5.842;2023-07-31T05:23:18;18.58;118.99
66035;HTU21D;52805;51.074;5.842;2023-07-31T05:25:44;18.57;118.99
66035;HTU21D;52805;51.074;5.842;2023-07-31T05:28:10;18.54;118.99
66035;HTU21D;52805;51.074;5.842;2023-07-31T05:30:35;18.56;118.99
66035;HTU21D;52805;51.074;5.842;2023-07-31T05:33:01;18.52;118.99
66035;HTU21D;52805;51.074;5.842;2023-07-31T05:35:27;18.49;118.99
66035;HTU21D;52805;51.074;5.842;2023-07-31T05:37:53;18.52;118.99
66035;HTU21D;52805;51.074;5.842;2023-07-31T05:40:19;18.46;118.99
66035;HTU21D;52805;51.074;5.842;2023-07-31T05:42:44;18.47;118.99
66035;HTU21D;52805;51.074;5.842;2023-07-31T05:45:10;18.42;118.99
66035;HTU21D;52805;51.074;5.842;2023-07-31T05:47:36;18.47;118.99
66035;HTU21D;52805;51.074;5.842;2023-07-31T05:50:02;18.46;118.99
66035;HTU21D;52805;51.074;5.842;2023-07-31T05:52:27;18.46;118.99
66035;HTU21D;52805;51.074;5.842;2023-07-31T05:54:55;18.48;118.99
66035;HTU21D;52805;51.074;5.842;2023-07-31T05:57:20;18.50;118.99
66035;HTU21D;52805;51.074;5.842;2023-07-31T05:59:46;18.52;118.99
66035;HTU21D;52805;51.074;5.842;2023-07-31T06:02:12;18.51;118.99
66035;HTU21D;52805;51.074;5.842;2023-07-31T06:04:38;18.56;118.99
66035;HTU21D;52805;51.074;5.842;2023-07-31T06:07:04;18.57;118.99
66035;HTU21D;52805;51.074;5.842;2023-07-31T06:09:30;18.54;118.99
66035;HTU21D;52805;51.074;5.842;2023-07-31T06:11:56;18.54;118.99
66035;HTU21D;52805;51.074;5.842;2023-07-31T06:14:22;18.52;118.99
66035;HTU21D;52805;51.074;5.842;2023-07-31T06:16:48;18.49;118.99
66035;HTU21D;52805;51.074;5.842;2023-07-31T06:19:13;18.52;118.99
66035;HTU21D;52805;51.074;5.842;2023-07-31T06:21:39;18.53;118.99
66035;HTU21D;52805;51.074;5.842;2023-07-31T06:24:07;18.59;118.99
66035;HTU21D;52805;51.074;5.842;2023-07-31T06:26:33;18.64;118.99
66035;HTU21D;52805;51.074;5.842;2023-07-31T06:28:58;18.55;118.99
66035;HTU21D;52805;51.074;5.842;2023-07-31T06:31:24;18.58;118.99
66035;HTU21D;52805;51.074;5.842;2023-07-31T06:33:52;18.55;118.99
66035;HTU21D;52805;51.074;5.842;2023-07-31T06:36:18;18.56;118.99
66035;HTU21D;52805;51.074;5.842;2023-07-31T06:38:43;18.52;118.99
66035;HTU21D;52805;51.074;5.842;2023-07-31T06:41:09;18.42;118.99
66035;HTU21D;52805;51.074;5.842;2023-07-31T06:43:36;18.43;118.99
66035;HTU21D;52805;51.074;5.842;2023-07-31T06:47:28;18.37;118.99
66035;HTU21D;52805;51.074;5.842;2023-07-31T06:49:54;18.35;118.99
66035;HTU21D;52805;51.074;5.842;2023-07-31T06:52:19;18.40;118.99
66035;HTU21D;52805;51.074;5.842;2023-07-31T06:55:00;18.36;118.99
66035;HTU21D;52805;51.074;5.842;2023-07-31T06:57:27;18.36;118.99
66035;HTU21D;52805;51.074;5.842;2023-07-31T06:59:53;18.23;118.99
66035;HTU21D;52805;51.074;5.842;2023-07-31T07:02:18;18.27;118.99
66035;HTU21D;52805;51.074;5.842;2023-07-31T07:04:44;18.22;118.99
66035;HTU21D;52805;51.074;5.842;2023-07-31T07:07:09;18.17;118.99
66035;HTU21D;52805;51.074;5.842;2023-07-31T07:09:35;18.17;118.99
66035;HTU21D;52805;51.074;5.842;2023-07-31T07:12:01;18.20;118.99
66035;HTU21D;52805;51.074;5.842;2023-07-31T07:14:26;18.21;118.99
66035;HTU21D;52805;51.074;5.842;2023-07-31T07:16:53;18.18;118.99
66035;HTU21D;52805;51.074;5.842;2023-07-31T07:19:19;18.22;118.99
66035;HTU21D;52805;51.074;5.842;2023-07-31T07:21:44;18.21;118.99
66035;HTU21D;52805;51.074;5.842;2023-07-31T07:24:10;18.19;118.99
66035;HTU21D;52805;51.074;5.842;2023-07-31T07:26:36;18.23;118.99
66035;HTU21D;52805;51.074;5.842;2023-07-31T07:29:01;18.22;118.99
66035;HTU21D;52805;51.074;5.842;2023-07-31T07:31:28;18.28;118.99
66035;HTU21D;52805;51.074;5.842;2023-07-31T07:33:54;18.32;118.99
66035;HTU21D;52805;51.074;5.842;2023-07-31T07:36:19;18.34;118.99
66035;HTU21D;52805;51.074;5.842;2023-07-31T07:38:45;18.40;118.99
66035;HTU21D;52805;51.074;5.842;2023-07-31T07:41:11;18.43;118.99
66035;HTU21D;52805;51.074;5.842;2023-07-31T07:43:36;18.47;118.99
66035;HTU21D;52805;51.074;5.842;2023-07-31T07:46:02;18.47;118.99
66035;HTU21D;52805;51.074;5.842;2023-07-31T07:48:31;18.52;118.99
66035;HTU21D;52805;51.074;5.842;2023-07-31T07:50:57;18.64;118.99
66035;HTU21D;52805;51.074;5.842;2023-07-31T07:53:22;18.76;118.99
66035;HTU21D;52805;51.074;5.842;2023-07-31T07:55:48;18.81;118.99
66035;HTU21D;52805;51.074;5.842;2023-07-31T07:58:14;18.82;118.99
66035;HTU21D;52805;51.074;5.842;2023-07-31T08:00:39;18.81;118.99
66035;HTU21D;52805;51.074;5.842;2023-07-31T08:03:05;18.83;118.99
66035;HTU21D;52805;51.074;5.842;2023-07-31T08:05:31;18.82;118.99
66035;HTU21D;52805;51.074;5.842;2023-07-31T08:07:59;18.74;118.99
66035;HTU21D;52805;51.074;5.842;2023-07-31T08:10:25;18.72;118.99
66035;HTU21D;52805;51.074;5.842;2023-07-31T08:12:51;18.64;118.99
66035;HTU21D;52805;51.074;5.842;2023-07-31T08:15:16;18.65;118.99
66035;HTU21D;52805;51.074;5.842;2023-07-31T08:17:42;18.62;118.99
66035;HTU21D;52805;51.074;5.842;2023-07-31T08:20:08;18.56;118.99
66035;HTU21D;52805;51.074;5.842;2023-07-31T08:22:34;18.43;118.99
66035;HTU21D;52805;51.074;5.842;2023-07-31T08:25:00;18.38;118.99
66035;HTU21D;52805;51.074;5.842;2023-07-31T08:27:26;18.37;118.99
66035;HTU21D;52805;51.074;5.842;2023-07-31T08:29:52;18.47;118.99
66035;HTU21D;52805;51.074;5.842;2023-07-31T08:32:18;18.59;118.99
66035;HTU21D;52805;51.074;5.842;2023-07-31T08:34:44;18.62;118.99
66035;HTU21D;52805;51.074;5.842;2023-07-31T08:37:10;18.64;118.99
66035;HTU21D;52805;51.074;5.842;2023-07-31T08:39:37;18.71;118.99
66035;HTU21D;52805;51.074;5.842;2023-07-31T08:42:08;18.81;118.99
66035;HTU21D;52805;51.074;5.842;2023-07-31T08:44:35;18.94;118.99
66035;HTU21D;52805;51.074;5.842;2023-07-31T08:47:01;19.01;118.99
66035;HTU21D;52805;51.074;5.842;2023-07-31T08:49:27;18.96;118.99
66035;HTU21D;52805;51.074;5.842;2023-07-31T08:51:54;19.00;118.99
66035;HTU21D;52805;51.074;5.842;2023-07-31T08:54:20;19.03;118.99
66035;HTU21D;52805;51.074;5.842;2023-07-31T08:56:46;19.12;118.99
66035;HTU21D;52805;51.074;5.842;2023-07-31T08:59:15;19.14;118.99
66035;HTU21D;52805;51.074;5.842;2023-07-31T09:01:47;19.30;118.99
66035;HTU21D;52805;51.074;5.842;2023-07-31T09:04:16;19.31;118.99
66035;HTU21D;52805;51.074;5.842;2023-07-31T09:06:44;19.35;118.99
66035;HTU21D;52805;51.074;5.842;2023-07-31T09:09:10;19.37;118.99
66035;HTU21D;52805;51.074;5.842;2023-07-31T09:11:36;19.31;118.99
66035;HTU21D;52805;51.074;5.842;2023-07-31T09:14:02;19.20;118.99
66035;HTU21D;52805;51.074;5.842;2023-07-31T09:16:34;19.11;118.99
66035;HTU21D;52805;51.074;5.842;2023-07-31T09:19:00;19.02;118.99
66035;HTU21D;52805;51.074;5.842;2023-07-31T09:21:27;19.06;118.99
66035;HTU21D;52805;51.074;5.842;2023-07-31T09:23:54;19.01;118.99
66035;HTU21D;52805;51.074;5.842;2023-07-31T09:26:31;19.02;118.99
66035;HTU21D;52805;51.074;5.842;2023-07-31T09:28:58;19.07;118.99
66035;HTU21D;52805;51.074;5.842;2023-07-31T09:31:33;19.12;118.99
66035;HTU21D;52805;51.074;5.842;2023-07-31T09:34:03;19.21;118.99
66035;HTU21D;52805;51.074;5.842;2023-07-31T09:36:30;19.20;118.99
66035;HTU21D;52805;51.074;5.842;2023-07-31T09:39:02;19.22;118.99
66035;HTU21D;52805;51.074;5.842;2023-07-31T09:41:30;19.32;118.99
66035;HTU21D;52805;51.074;5.842;2023-07-31T09:43:56;19.50;118.99
66035;HTU21D;52805;51.074;5.842;2023-07-31T09:46:21;19.69;118.99
66035;HTU21D;52805;51.074;5.842;2023-07-31T09:48:47;19.84;118.99
66035;HTU21D;52805;51.074;5.842;2023-07-31T09:51:13;19.99;118.99
66035;HTU21D;52805;51.074;5.842;2023-07-31T09:53:38;20.15;118.99
66035;HTU21D;52805;51.074;5.842;2023-07-31T09:56:05;20.24;118.99
66035;HTU21D;52805;51.074;5.842;2023-07-31T09:58:34;20.25;118.99
66035;HTU21D;52805;51.074;5.842;2023-07-31T10:01:02;20.26;118.99
66035;HTU21D;52805;51.074;5.842;2023-07-31T10:03:29;20.21;118.99
66035;HTU21D;52805;51.074;5.842;2023-07-31T10:06:01;20.15;118.99
66035;HTU21D;52805;51.074;5.842;2023-07-31T10:08:30;20.09;118.99
66035;HTU21D;52805;51.074;5.842;2023-07-31T10:10:59;20.07;118.99
66035;HTU21D;52805;51.074;5.842;2023-07-31T10:13:28;20.01;118.99
66035;HTU21D;52805;51.074;5.842;2023-07-31T10:15:59;20.04;118.99
66035;HTU21D;52805;51.074;5.842;2023-07-31T10:18:26;20.09;118.99
66035;HTU21D;52805;51.074;5.842;2023-07-31T10:20:53;20.06;118.99
66035;HTU21D;52805;51.074;5.842;2023-07-31T10:23:20;20.12;118.99
66035;HTU21D;52805;51.074;5.842;2023-07-31T10:25:48;20.19;118.99
66035;HTU21D;52805;51.074;5.842;2023-07-31T10:28:15;20.30;118.99
66035;HTU21D;52805;51.074;5.842;2023-07-31T10:30:41;20.36;118.99
66035;HTU21D;52805;51.074;5.842;2023-07-31T10:33:08;20.37;118.99
66035;HTU21D;52805;51.074;5.842;2023-07-31T10:35:34;20.41;118.99
66035;HTU21D;52805;51.074;5.842;2023-07-31T10:38:10;20.39;118.99
66035;HTU21D;52805;51.074;5.842;2023-07-31T10:40:40;20.43;118.99
66035;HTU21D;52805;51.074;5.842;2023-07-31T10:43:06;20.42;118.99
66035;HTU21D;52805;51.074;5.842;2023-07-31T10:45:42;20.39;118.99
66035;HTU21D;52805;51.074;5.842;2023-07-31T10:48:17;20.34;118.99
66035;HTU21D;52805;51.074;5.842;2023-07-31T10:50:55;20.35;118.99
66035;HTU21D;52805;51.074;5.842;2023-07-31T10:53:32;20.41;118.99
66035;HTU21D;52805;51.074;5.842;2023-07-31T10:56:06;20.35;118.99
66035;HTU21D;52805;51.074;5.842;2023-07-31T10:58:33;20.36;118.99
66035;HTU21D;52805;51.074;5.842;2023-07-31T11:01:04;20.48;118.99
66035;HTU21D;52805;51.074;5.842;2023-07-31T11:03:50;20.60;118.99
66035;HTU21D;52805;51.074;5.842;2023-07-31T11:06:18;20.83;118.99
66035;HTU21D;52805;51.074;5.842;2023-07-31T11:08:46;21.14;118.99
66035;HTU21D;52805;51.074;5.842;2023-07-31T11:11:14;21.37;118.99
66035;HTU21D;52805;51.074;5.842;2023-07-31T11:13:42;21.58;118.99
66035;HTU21D;52805;51.074;5.842;2023-07-31T11:16:10;21.51;118.99
66035;HTU21D;52805;51.074;5.842;2023-07-31T11:18:41;21.39;118.99
66035;HTU21D;52805;51.074;5.842;2023-07-31T11:21:12;21.30;118.99
66035;HTU21D;52805;51.074;5.842;2023-07-31T11:23:38;21.17;118.99
66035;HTU21D;52805;51.074;5.842;2023-07-31T11:26:05;21.01;118.99
66035;HTU21D;52805;51.074;5.842;2023-07-31T11:28:33;20.88;118.99
66035;HTU21D;52805;51.074;5.842;2023-07-31T11:31:00;20.78;118.99
66035;HTU21D;52805;51.074;5.842;2023-07-31T11:33:26;20.72;118.99
66035;HTU21D;52805;51.074;5.842;2023-07-31T11:35:52;20.65;118.99
66035;HTU21D;52805;51.074;5.842;2023-07-31T11:38:26;20.61;118.99
66035;HTU21D;52805;51.074;5.842;2023-07-31T11:40:57;20.57;118.99
66035;HTU21D;52805;51.074;5.842;2023-07-31T11:43:24;20.50;118.99
66035;HTU21D;52805;51.074;5.842;2023-07-31T11:45:52;20.53;118.99
66035;HTU21D;52805;51.074;5.842;2023-07-31T11:48:24;20.65;118.99
66035;HTU21D;52805;51.074;5.842;2023-07-31T11:50:51;20.69;118.99
66035;HTU21D;52805;51.074;5.842;2023-07-31T11:53:25;20.75;118.99
66035;HTU21D;52805;51.074;5.842;2023-07-31T11:55:52;20.85;118.99
66035;HTU21D;52805;51.074;5.842;2023-07-31T11:58:19;20.93;118.99
66035;HTU21D;52805;51.074;5.842;2023-07-31T12:00:46;21.02;118.99
66035;HTU21D;52805;51.074;5.842;2023-07-31T12:03:12;21.09;118.99
66035;HTU21D;52805;51.074;5.842;2023-07-31T12:05:38;21.20;118.99
66035;HTU21D;52805;51.074;5.842;2023-07-31T12:08:10;21.29;118.99
66035;HTU21D;52805;51.074;5.842;2023-07-31T12:10:39;21.40;118.99
66035;HTU21D;52805;51.074;5.842;2023-07-31T12:13:12;21.46;118.99
66035;HTU21D;52805;51.074;5.842;2023-07-31T12:15:45;21.58;118.99
66035;HTU21D;52805;51.074;5.842;2023-07-31T12:18:19;21.85;118.99
66035;HTU21D;52805;51.074;5.842;2023-07-31T12:21:02;22.08;118.99
66035;HTU21D;52805;51.074;5.842;2023-07-31T12:23:34;22.34;118.99
66035;HTU21D;52805;51.074;5.842;2023-07-31T12:28:48;22.57;118.99
66035;HTU21D;52805;51.074;5.842;2023-07-31T12:31:20;22.52;118.99
66035;HTU21D;52805;51.074;5.842;2023-07-31T12:33:48;22.50;118.99
66035;HTU21D;52805;51.074;5.842;2023-07-31T12:36:17;22.52;118.99
66035;HTU21D;52805;51.074;5.842;2023-07-31T12:38:43;22.51;118.99
66035;HTU21D;52805;51.074;5.842;2023-07-31T12:41:10;22.61;118.99
66035;HTU21D;52805;51.074;5.842;2023-07-31T12:43:37;22.71;118.99
66035;HTU21D;52805;51.074;5.842;2023-07-31T12:46:04;22.83;118.99
66035;HTU21D;52805;51.074;5.842;2023-07-31T12:48:31;22.91;118.99
66035;HTU21D;52805;51.074;5.842;2023-07-31T12:50:57;22.96;118.99
66035;HTU21D;52805;51.074;5.842;2023-07-31T12:53:22;22.94;118.99
66035;HTU21D;52805;51.074;5.842;2023-07-31T12:55:49;22.99;118.99
66035;HTU21D;52805;51.074;5.842;2023-07-31T12:58:14;23.06;118.99
66035;HTU21D;52805;51.074;5.842;2023-07-31T13:00:40;23.13;118.99
66035;HTU21D;52805;51.074;5.842;2023-07-31T13:03:06;23.13;118.99
66035;HTU21D;52805;51.074;5.842;2023-07-31T13:05:31;23.15;118.99
66035;HTU21D;52805;51.074;5.842;2023-07-31T13:07:57;23.14;118.99
66035;HTU21D;52805;51.074;5.842;2023-07-31T13:10:23;23.22;118.99
66035;HTU21D;52805;51.074;5.842;2023-07-31T13:12:51;23.20;118.99
66035;HTU21D;52805;51.074;5.842;2023-07-31T13:15:16;23.03;118.99
66035;HTU21D;52805;51.074;5.842;2023-07-31T13:17:42;23.00;118.99
66035;HTU21D;52805;51.074;5.842;2023-07-31T13:20:08;22.82;118.99
66035;HTU21D;52805;51.074;5.842;2023-07-31T13:22:34;22.73;118.99
66035;HTU21D;52805;51.074;5.842;2023-07-31T13:25:00;22.52;118.99
66035;HTU21D;52805;51.074;5.842;2023-07-31T13:27:25;22.31;118.99
66035;HTU21D;52805;51.074;5.842;2023-07-31T13:29:52;22.16;118.99
66035;HTU21D;52805;51.074;5.842;2023-07-31T13:32:19;22.04;118.99
66035;HTU21D;52805;51.074;5.842;2023-07-31T13:34:48;21.95;118.99
66035;HTU21D;52805;51.074;5.842;2023-07-31T13:37:14;21.90;118.99
66035;HTU21D;52805;51.074;5.842;2023-07-31T13:39:40;21.82;118.99
66035;HTU21D;52805;51.074;5.842;2023-07-31T13:42:07;21.82;118.99
66035;HTU21D;52805;51.074;5.842;2023-07-31T13:44:39;21.82;118.99
66035;HTU21D;52805;51.074;5.842;2023-07-31T13:47:06;21.74;118.99
66035;HTU21D;52805;51.074;5.842;2023-07-31T13:49:33;21.79;118.99
66035;HTU21D;52805;51.074;5.842;2023-07-31T13:51:59;21.69;118.99
66035;HTU21D;52805;51.074;5.842;2023-07-31T13:54:25;21.73;118.99
66035;HTU21D;52805;51.074;5.842;2023-07-31T13:56:54;21.79;118.99
66035;HTU21D;52805;51.074;5.842;2023-07-31T13:59:20;21.84;118.99
66035;HTU21D;52805;51.074;5.842;2023-07-31T14:01:46;21.88;118.99
66035;HTU21D;52805;51.074;5.842;2023-07-31T14:04:12;21.87;118.99
66035;HTU21D;52805;51.074;5.842;2023-07-31T14:06:37;21.98;118.99
66035;HTU21D;52805;51.074;5.842;2023-07-31T14:09:03;22.13;118.99
66035;HTU21D;52805;51.074;5.842;2023-07-31T14:11:31;22.18;118.99
66035;HTU21D;52805;51.074;5.842;2023-07-31T14:13:57;22.28;118.99
66035;HTU21D;52805;51.074;5.842;2023-07-31T14:16:23;22.23;118.99
66035;HTU21D;52805;51.074;5.842;2023-07-31T14:18:49;22.26;118.99
66035;HTU21D;52805;51.074;5.842;2023-07-31T14:21:15;22.29;118.99
66035;HTU21D;52805;51.074;5.842;2023-07-31T14:23:41;22.27;118.99
66035;HTU21D;52805;51.074;5.842;2023-07-31T14:26:07;22.26;118.99
66035;HTU21D;52805;51.074;5.842;2023-07-31T14:28:33;22.22;118.99
66035;HTU21D;52805;51.074;5.842;2023-07-31T14:30:59;22.14;118.99
66035;HTU21D;52805;51.074;5.842;2023-07-31T14:33:25;21.98;118.99
66035;HTU21D;52805;51.074;5.842;2023-07-31T14:35:51;21.89;118.99
66035;HTU21D;52805;51.074;5.842;2023-07-31T14:38:17;21.83;118.99
66035;HTU21D;52805;51.074;5.842;2023-07-31T14:40:43;21.83;118.99
66035;HTU21D;52805;51.074;5.842;2023-07-31T14:43:09;21.72;118.99
66035;HTU21D;52805;51.074;5.842;2023-07-31T14:45:35;21.72;118.99
66035;HTU21D;52805;51.074;5.842;2023-07-31T14:48:00;21.64;118.99
66035;HTU21D;52805;51.074;5.842;2023-07-31T14:50:26;21.59;118.99
66035;HTU21D;52805;51.074;5.842;2023-07-31T14:52:52;21.58;118.99
66035;HTU21D;52805;51.074;5.842;2023-07-31T14:55:18;21.54;118.99
66035;HTU21D;52805;51.074;5.842;2023-07-31T14:57:44;21.47;118.99
66035;HTU21D;52805;51.074;5.842;2023-07-31T15:00:10;21.37;118.99
66035;HTU21D;52805;51.074;5.842;2023-07-31T15:02:37;21.25;118.99
66035;HTU21D;52805;51.074;5.842;2023-07-31T15:05:03;21.09;118.99
66035;HTU21D;52805;51.074;5.842;2023-07-31T15:07:29;21.05;118.99
66035;HTU21D;52805;51.074;5.842;2023-07-31T15:09:55;20.93;118.99